Bookmark and Share
Track history (hours):
 

Pacific Titan

More information available from US FCC via Universal Licensing System and Coast Guard Vessel Documentation Center.

Last reported at 2014-Apr-19 19:08 UTC. Time now 2014-Apr-23 15:03 UTC.
Position N 54°45' W 130°54'.

Type: Tow > 200 m length. MMSI: 338855000.

NotesDate/timePositionNaut miles runAvg speedWind from/ knotsBaromVisibWave heightAir tempDewpointWater temp
2014-Apr-19 19:08N 54°45' W 130°54'610.0
2014-Apr-19 18:32N 54°40' W 130°47'8 8.7
2014-Apr-19 17:34N 54°32' W 130°43'10 9.5
2014-Apr-19 16:33N 54°23' W 130°38'1010.1
2014-Apr-19 15:33N 54°14' W 130°30'194 8.4
2014-Apr-18 16:31N 51°25' W 127°52'9 9.4
2014-Apr-18 15:34N 51°16' W 127°53'9 9.4
2014-Apr-18 14:34N 51°08' W 127°48'9 9.3
2014-Apr-18 13:34N 51°01' W 127°37'10 9.8
2014-Apr-18 12:34N 50°55' W 127°25'10 9.8
2014-Apr-18 11:33N 50°50' W 127°12'10 9.5
2014-Apr-18 10:32N 50°44' W 126°59'8 8.5
2014-Apr-18 09:34N 50°39' W 126°49'67 8.3
2014-Apr-18 01:32N 50°06' W 125°18'5 4.9
2014-Apr-18 00:30N 50°02' W 125°13'4 3.6
2014-Apr-17 23:30N 49°59' W 125°11'5 5.2
2014-Apr-17 22:33N 49°55' W 125°06'3 2.8
2014-Apr-17 21:28N 49°58' W 125°09'1 0.7
2014-Apr-17 20:33N 49°58' W 125°09'1010.2
2014-Apr-17 19:34N 49°52' W 124°57'1110.3
2014-Apr-17 18:32N 49°45' W 124°45'1110.7
2014-Apr-17 17:34N 49°38' W 124°32'1010.3
2014-Apr-17 16:34N 49°33' W 124°19'10 9.8
2014-Apr-17 15:34N 49°28' W 124°06'1010.4
2014-Apr-17 14:33N 49°23' W 123°52'1010.2
2014-Apr-17 13:34N 49°16' W 123°40'1010.2
2014-Apr-17 12:34N 49°09' W 123°28'1010.4
2014-Apr-17 11:34N 49°02' W 123°17'1110.7
2014-Apr-17 10:34N 48°55' W 123°05'1110.6
2014-Apr-17 09:34N 48°48' W 122°53'1010.0
2014-Apr-17 08:34N 48°41' W 122°42'8 8.4
2014-Apr-17 07:34N 48°32' W 122°45'9 8.9
2014-Apr-17 06:32N 48°23' W 122°44'9 9.6
2014-Apr-17 05:32N 48°14' W 122°48'1111.1
2014-Apr-17 04:32N 48°05' W 122°38'112.4
2014-Apr-17 04:29N 48°05' W 122°38'1011.0
2014-Apr-17 03:34N 47°56' W 122°30'1 9.6
2014-Apr-17 03:29N 47°56' W 122°29'1010.5
2014-Apr-17 02:33N 47°46' W 122°26'110.9
2014-Apr-17 02:29N 47°45' W 122°26'9 9.7
2014-Apr-17 01:34N 47°37' W 122°23'1 9.8
2014-Apr-17 01:28N 47°36' W 122°22'3 3.5
2014-Apr-17 00:34N 47°33' W 122°21'0 0.6
2014-Apr-17 00:34N 47°33' W 122°21'0 0.0
2014-Apr-16 23:34N 47°33' W 122°21'0 0.0
2014-Apr-16 23:34N 47°33' W 122°21'2 1.9
2014-Apr-16 22:33N 47°35' W 122°22'1 8.2
2014-Apr-16 22:29N 47°35' W 122°22'5 5.1
2014-Apr-16 21:33N 47°40' W 122°24'0 0.0
2014-Apr-16 21:33N 47°40' W 122°24'2 0.1
2014-Apr-16 06:31N 47°39' W 122°22'0 0.0
2014-Apr-16 06:28N 47°39' W 122°22'2 2.2
2014-Apr-16 05:47N 47°40' W 122°24'1 3.3
2014-Apr-16 05:33N 47°40' W 122°25'5 5.3
2014-Apr-16 04:33N 47°35' W 122°22'0 0.0
2014-Apr-16 04:32N 47°35' W 122°22'2 2.2
2014-Apr-16 03:33N 47°37' W 122°24'0 8.2
2014-Apr-16 03:32N 47°37' W 122°24'8 8.3
2014-Apr-16 02:33N 47°45' W 122°27'0 7.7
2014-Apr-16 02:32N 47°45' W 122°27'9 9.4
2014-Apr-16 01:33N 47°54' W 122°30'0 8.8
2014-Apr-16 01:32N 47°54' W 122°30'1010.5
2014-Apr-16 00:32N 48°03' W 122°39'1110.9
2014-Apr-15 23:33N 48°12' W 122°47'10 9.9
2014-Apr-15 22:33N 48°22' W 122°46'8 8.5
2014-Apr-15 21:33N 48°31' W 122°45'9 8.7
2014-Apr-15 20:33N 48°39' W 122°44'9 9.2
2014-Apr-15 19:33N 48°47' W 122°52'1010.5
2014-Apr-15 18:33N 48°53' W 123°05'1111.0
2014-Apr-15 17:33N 48°60' W 123°18'1110.7
2014-Apr-15 16:33N 49°07' W 123°30'1110.8
2014-Apr-15 15:33N 49°15' W 123°41'1010.5
2014-Apr-15 14:33N 49°22' W 123°53'10 5.2
2014-Apr-15 12:34N 49°27' W 124°06'1010.3
2014-Apr-15 11:34N 49°33' W 124°20'1010.0
2014-Apr-15 10:34N 49°38' W 124°33'2110.1
2014-Apr-15 08:31N 49°51' W 124°58'2110.6
2014-Apr-15 06:30N 50°07' W 125°20'72 8.1
2014-Apr-14 21:33N 50°44' W 126°58'1010.0
2014-Apr-14 20:33N 50°50' W 127°11'1010.5
2014-Apr-14 19:33N 50°55' W 127°25'1010.1
2014-Apr-14 18:34N 51°02' W 127°37'1010.2
2014-Apr-14 17:33N 51°08' W 127°49'201 9.0
2014-Apr-13 19:13N 54°07' W 130°22'6 9.5
2014-Apr-13 18:33N 54°12' W 130°28'10 9.6
2014-Apr-13 17:33N 54°20' W 130°36'1010.1
2014-Apr-13 16:32N 54°30' W 130°42'  

Dump ship's entire track history

sailing weather and tide predictions

Pacific Titan — WCZ6844 — position and weather